createdAt,value
2019-04-07T00:00:09.336Z,99711.10
2019-04-07T00:02:38.549Z,99713.05
2019-04-07T00:05:12.356Z,99716.31
2019-04-07T00:07:38.257Z,99717.65
2019-04-07T00:10:09.847Z,99715.67
2019-04-07T00:12:38.618Z,99712.30
2019-04-07T00:15:07.406Z,99712.17
2019-04-07T00:17:36.254Z,99714.90
2019-04-07T00:20:05.487Z,99716.58
2019-04-07T00:22:34.539Z,99712.73
2019-04-07T00:25:04.084Z,99713.20
2019-04-07T00:27:33.380Z,99711.93
2019-04-07T00:30:02.308Z,99709.06
2019-04-07T00:32:30.865Z,99709.38
2019-04-07T00:34:59.969Z,99706.92
2019-04-07T00:37:28.722Z,99704.45
2019-04-07T00:39:57.782Z,99708.23
2019-04-07T00:42:27.412Z,99706.47
2019-04-07T00:44:56.264Z,99709.49
2019-04-07T00:47:24.961Z,99709.38
2019-04-07T00:49:53.877Z,99712.25
2019-04-07T00:52:23.667Z,99712.96
2019-04-07T00:54:52.304Z,99705.90
2019-04-07T00:57:21.143Z,99705.13
2019-04-07T00:59:49.708Z,99700.80
2019-04-07T01:02:18.478Z,99705.98
2019-04-07T01:04:47.272Z,99707.46
2019-04-07T01:07:16.192Z,99706.27
2019-04-07T01:09:45.333Z,99700.69
2019-04-07T01:12:14.120Z,99703.11
2019-04-07T01:14:43.376Z,99703.48
2019-04-07T01:17:12.598Z,99703.48
2019-04-07T01:19:41.603Z,99705.64
2019-04-07T01:22:10.175Z,99701.11
2019-04-07T01:24:39.491Z,99706.63
2019-04-07T01:27:08.540Z,99701.25
2019-04-07T01:29:37.443Z,99702.55
2019-04-07T01:32:07.150Z,99700.64
2019-04-07T01:34:36.271Z,99702.05
2019-04-07T01:37:05.610Z,99707.52
2019-04-07T01:39:34.976Z,99714.55
2019-04-07T01:42:10.024Z,99713.76
2019-04-07T01:44:48.024Z,99713.05
2019-04-07T01:47:25.228Z,99714.16
2019-04-07T01:50:01.855Z,99709.22
2019-04-07T01:52:47.026Z,99710.38
2019-04-07T01:55:44.294Z,99708.27
2019-04-07T01:58:48.201Z,99705.25
2019-04-07T02:01:31.397Z,99701.89
2019-04-07T02:04:06.021Z,99700.48
2019-04-07T02:07:10.719Z,99698.02
2019-04-07T02:09:57.645Z,99702.11
2019-04-07T02:12:48.983Z,99701.92
2019-04-07T02:15:30.036Z,99705.84
2019-04-07T02:18:07.116Z,99706.71
2019-04-07T02:21:03.345Z,99697.85
2019-04-07T02:24:00.966Z,99702.41
2019-04-07T02:26:52.402Z,99704.90
2019-04-07T02:29:39.971Z,99711.91
2019-04-07T02:32:29.367Z,99704.44
2019-04-07T02:35:26.781Z,99700.88
2019-04-07T02:38:15.079Z,99696.70
2019-04-07T02:40:51.474Z,99700.33
2019-04-07T02:43:34.050Z,99704.91
2019-04-07T02:46:23.673Z,99710.80
2019-04-07T02:48:59.162Z,99704.98
2019-04-07T02:51:46.193Z,99699.14
2019-04-07T02:54:33.077Z,99703.67
2019-04-07T02:57:22.104Z,99705.03
2019-04-07T02:59:57.906Z,99696.73
2019-04-07T03:02:33.464Z,99702.91
2019-04-07T03:05:24.806Z,99702.14
2019-04-07T03:08:05.929Z,99701.32
2019-04-07T03:11:12.547Z,99708.27
2019-04-07T03:14:07.818Z,99705.23
2019-04-07T03:16:42.325Z,99703.67
2019-04-07T03:19:19.335Z,99697.50
2019-04-07T03:21:58.388Z,99697.55
2019-04-07T03:24:45.151Z,99697.89
2019-04-07T03:27:32.082Z,99698.68
2019-04-07T03:30:13.993Z,99703.19
2019-04-07T03:33:14.257Z,99702.66
2019-04-07T03:36:06.818Z,99707.89
2019-04-07T03:38:55.738Z,99705.11
2019-04-07T03:41:33.226Z,99713.19
2019-04-07T03:44:29.166Z,99707.36
2019-04-07T03:47:23.782Z,99701.28
2019-04-07T03:49:57.124Z,99710.97
2019-04-07T03:52:35.445Z,99700.98
2019-04-07T03:55:31.093Z,99701.46
2019-04-07T03:58:14.026Z,99701.80
2019-04-07T04:01:30.216Z,99710.44
2019-04-07T04:04:15.751Z,99695.75
2019-04-07T04:07:17.830Z,99696.05
2019-04-07T04:09:41.294Z,99700.26
2019-04-07T04:12:17.154Z,99696.66
2019-04-07T04:15:01.950Z,99700.48
2019-04-07T04:17:30.845Z,99699.44
2019-04-07T04:19:59.506Z,99692.52
2019-04-07T04:22:29.140Z,99696.75
2019-04-07T04:24:58.463Z,99695.07
2019-04-07T04:27:28.090Z,99695.89
2019-04-07T04:29:56.892Z,99705.33
2019-04-07T04:32:25.710Z,99706.19
2019-04-07T04:34:54.714Z,99701.45
2019-04-07T04:37:36.087Z,99703.73
2019-04-07T04:39:54.427Z,99707.64
2019-04-07T04:42:25.050Z,99708.20
2019-04-07T04:44:54.368Z,99713.04
2019-04-07T04:47:23.255Z,99721.33
2019-04-07T04:49:52.794Z,99714.11
2019-04-07T04:52:22.026Z,99714.97
2019-04-07T04:54:51.725Z,99720.58
2019-04-07T04:57:20.766Z,99726.75
2019-04-07T04:59:49.453Z,99718.14
2019-04-07T05:02:18.942Z,99732.59
2019-04-07T05:04:47.850Z,99732.25
2019-04-07T05:07:16.830Z,99739.78
2019-04-07T05:09:50.330Z,99738.72
2019-04-07T05:12:16.310Z,99746.20
2019-04-07T05:14:45.555Z,99756.20
2019-04-07T05:17:14.321Z,99752.84
2019-04-07T05:19:42.975Z,99758.38
2019-04-07T05:22:12.525Z,99761.44
2019-04-07T05:24:41.280Z,99757.80
2019-04-07T05:27:10.599Z,99762.50
2019-04-07T05:29:40.243Z,99766.67
2019-04-07T05:32:08.856Z,99765.59
2019-04-07T05:34:38.196Z,99768.36
2019-04-07T05:37:06.800Z,99767.25
2019-04-07T05:39:36.150Z,99769.74
2019-04-07T05:42:05.026Z,99765.25
2019-04-07T05:44:34.388Z,99772.99
2019-04-07T05:49:43.655Z,99776.83
2019-04-07T05:52:12.783Z,99782.41
2019-04-07T05:54:41.340Z,99789.40
2019-04-07T05:57:10.548Z,99790.75
2019-04-07T05:59:39.891Z,99789.66
2019-04-07T06:02:09.919Z,99792.41
2019-04-07T06:04:38.437Z,99792.70
2019-04-07T06:07:08.033Z,99791.00
2019-04-07T06:09:37.265Z,99796.56
2019-04-07T06:12:07.959Z,99797.88
2019-04-07T06:14:36.887Z,99799.17
2019-04-07T06:17:05.469Z,99800.53
2019-04-07T06:19:37.360Z,99798.55
2019-04-07T06:22:05.465Z,99802.27
2019-04-07T06:24:35.140Z,99811.67
2019-04-07T06:27:04.383Z,99806.06
2019-04-07T06:29:33.399Z,99807.06
2019-04-07T06:32:04.569Z,99806.10
2019-04-07T06:34:32.652Z,99808.93
2019-04-07T06:37:01.203Z,99811.80
2019-04-07T06:39:31.953Z,99808.61
2019-04-07T06:42:01.391Z,99810.23
2019-04-07T06:44:30.826Z,99813.53
2019-04-07T06:47:25.005Z,99818.53
2019-04-07T06:50:23.302Z,99820.01
2019-04-07T06:52:58.958Z,99825.18
2019-04-07T06:55:46.137Z,99818.58
2019-04-07T06:58:41.739Z,99822.50
2019-04-07T07:01:29.651Z,99821.11
2019-04-07T07:04:16.788Z,99824.59
2019-04-07T07:07:00.640Z,99824.84
2019-04-07T07:09:45.889Z,99829.02
2019-04-07T07:12:39.114Z,99823.13
2019-04-07T07:15:18.412Z,99826.44
2019-04-07T07:17:59.285Z,99824.08
2019-04-07T07:21:03.728Z,99835.09
2019-04-07T07:23:35.445Z,99838.60
2019-04-07T07:26:04.278Z,99833.52
2019-04-07T07:28:33.733Z,99834.70
2019-04-07T07:31:04.345Z,99835.75
2019-04-07T07:33:33.443Z,99834.75
2019-04-07T07:36:02.484Z,99831.97
2019-04-07T07:38:32.731Z,99825.67
2019-04-07T07:41:03.584Z,99823.87
2019-04-07T07:43:32.419Z,99832.64
2019-04-07T07:46:00.964Z,99835.06
2019-04-07T07:48:30.258Z,99830.51
2019-04-07T07:50:59.079Z,99830.48
2019-04-07T07:53:28.593Z,99833.59
2019-04-07T07:55:57.654Z,99836.66
2019-04-07T07:58:30.762Z,99835.68
2019-04-07T08:00:59.563Z,99838.31
2019-04-07T08:03:27.307Z,99841.23
2019-04-07T08:05:56.541Z,99844.84
2019-04-07T08:08:25.425Z,99846.16
2019-04-07T08:10:59.086Z,99838.94
2019-04-07T08:13:24.836Z,99845.08
2019-04-07T08:15:56.596Z,99837.83
2019-04-07T08:18:23.974Z,99839.23
2019-04-07T08:20:53.297Z,99837.73
2019-04-07T08:23:22.062Z,99835.70
2019-04-07T08:25:52.898Z,99837.97
2019-04-07T08:28:21.668Z,99838.30
2019-04-07T08:30:50.343Z,99836.89
2019-04-07T08:33:20.131Z,99835.97
2019-04-07T08:35:49.107Z,99833.16
2019-04-07T08:38:19.979Z,99841.03
2019-04-07T08:40:49.683Z,99833.07
2019-04-07T08:43:21.359Z,99844.47
2019-04-07T08:45:48.973Z,99835.86
2019-04-07T08:48:19.405Z,99844.50
2019-04-07T08:50:48.593Z,99845.54
2019-04-07T08:53:17.332Z,99842.69
2019-04-07T08:55:48.609Z,99842.83
2019-04-07T08:58:24.959Z,99843.66
2019-04-07T09:00:51.615Z,99844.27
2019-04-07T09:03:19.730Z,99844.27
2019-04-07T09:05:48.284Z,99845.61
2019-04-07T09:08:17.249Z,99850.80
2019-04-07T09:10:54.945Z,99845.86
2019-04-07T09:13:24.082Z,99838.28
2019-04-07T09:16:19.940Z,99843.72
2019-04-07T09:19:06.043Z,99850.69
2019-04-07T09:21:47.550Z,99851.05
2019-04-07T09:24:31.399Z,99854.77
2019-04-07T09:27:14.697Z,99850.70
2019-04-07T09:29:58.245Z,99850.70
2019-04-07T09:32:41.604Z,99857.93
2019-04-07T09:35:24.047Z,99852.65
2019-04-07T09:38:10.872Z,99858.53
2019-04-07T09:41:17.239Z,99845.93
2019-04-07T09:43:55.302Z,99861.18
2019-04-07T09:46:44.775Z,99858.48
2019-04-07T09:49:31.028Z,99857.55
2019-04-07T09:52:18.581Z,99849.23
2019-04-07T09:55:24.350Z,99856.78
2019-04-07T09:58:09.222Z,99851.71
2019-04-07T10:00:57.358Z,99853.61
2019-04-07T10:03:51.839Z,99856.00
2019-04-07T10:06:39.705Z,99853.22
2019-04-07T10:09:20.330Z,99856.58
2019-04-07T10:12:11.764Z,99844.42
2019-04-07T10:15:03.121Z,99848.98
2019-04-07T10:17:43.831Z,99850.05
2019-04-07T10:20:28.590Z,99852.62
2019-04-07T10:23:16.930Z,99854.37
2019-04-07T10:25:56.152Z,99861.09
2019-04-07T10:28:41.644Z,99847.87
2019-04-07T10:31:45.269Z,99856.81
2019-04-07T10:34:23.722Z,99851.05
2019-04-07T10:37:10.203Z,99855.20
2019-04-07T10:39:56.016Z,99850.47
2019-04-07T10:42:42.161Z,99857.17
2019-04-07T10:45:30.512Z,99860.95
2019-04-07T10:48:34.296Z,99853.15
2019-04-07T10:51:23.068Z,99846.63
2019-04-07T10:54:01.572Z,99849.16
2019-04-07T10:56:49.757Z,99843.36
2019-04-07T10:59:27.952Z,99844.69
2019-04-07T11:02:15.137Z,99848.63
2019-04-07T11:05:03.338Z,99848.42
2019-04-07T11:07:51.519Z,99846.89
2019-04-07T11:10:34.550Z,99842.99
2019-04-07T11:13:13.525Z,99848.59
2019-04-07T11:16:00.319Z,99848.45
2019-04-07T11:18:46.887Z,99848.59
2019-04-07T11:21:53.505Z,99848.86
2019-04-07T11:24:50.586Z,99840.75
2019-04-07T11:27:56.616Z,99847.27
2019-04-07T11:30:52.090Z,99851.44
2019-04-07T11:33:41.377Z,99844.76
2019-04-07T11:36:18.042Z,99842.22
2019-04-07T11:39:20.536Z,99836.94
2019-04-07T11:42:08.862Z,99845.89
2019-04-07T11:44:51.482Z,99841.17
2019-04-07T11:47:28.626Z,99849.55
2019-04-07T11:50:15.585Z,99839.95
2019-04-07T11:53:03.964Z,99838.45
2019-04-07T11:55:51.120Z,99835.58
2019-04-07T11:58:39.795Z,99841.37
2019-04-07T12:01:46.074Z,99844.36
2019-04-07T12:04:36.682Z,99849.33
2019-04-07T12:07:25.035Z,99841.40
2019-04-07T12:10:12.553Z,99843.52
2019-04-07T12:12:53.857Z,99848.25
2019-04-07T12:15:42.954Z,99851.89
2019-04-07T12:18:30.864Z,99843.23
2019-04-07T12:21:24.082Z,99842.45
2019-04-07T12:24:10.585Z,99838.52
2019-04-07T12:26:47.392Z,99832.14
2019-04-07T12:29:35.104Z,99841.04
2019-04-07T12:32:26.689Z,99838.25
2019-04-07T12:35:23.672Z,99843.15
2019-04-07T12:38:01.531Z,99842.59
2019-04-07T12:40:38.910Z,99832.66
2019-04-07T12:43:21.824Z,99834.70
2019-04-07T12:46:07.159Z,99838.92
2019-04-07T12:48:46.974Z,99838.92
2019-04-07T12:51:41.443Z,99834.48
2019-04-07T12:54:32.012Z,99831.75
2019-04-07T12:57:17.688Z,99837.08
2019-04-07T13:00:06.081Z,99833.28
2019-04-07T13:02:53.226Z,99831.98
2019-04-07T13:05:49.865Z,99831.52
2019-04-07T13:08:28.618Z,99827.34
2019-04-07T13:11:11.211Z,99827.81
2019-04-07T13:13:49.509Z,99824.34
2019-04-07T13:16:34.850Z,99826.39
2019-04-07T13:19:16.378Z,99822.30
2019-04-07T13:21:57.273Z,99822.92
2019-04-07T13:24:39.365Z,99827.45
2019-04-07T13:27:28.019Z,99820.23
2019-04-07T13:30:03.240Z,99819.38
2019-04-07T13:32:57.527Z,99819.13
2019-04-07T13:35:34.183Z,99815.20
2019-04-07T13:38:22.018Z,99820.30
2019-04-07T13:41:01.834Z,99813.28
2019-04-07T13:43:44.277Z,99812.09
2019-04-07T13:46:35.684Z,99820.78
2019-04-07T13:49:15.858Z,99818.59
2019-04-07T13:52:02.458Z,99809.87
2019-04-07T13:55:04.525Z,99808.25
2019-04-07T13:57:50.396Z,99800.42
2019-04-07T14:00:48.291Z,99809.50
2019-04-07T14:03:45.276Z,99812.59
2019-04-07T14:06:23.799Z,99803.84
2019-04-07T14:09:06.768Z,99806.28
2019-04-07T14:11:58.250Z,99808.81
2019-04-07T14:14:36.217Z,99806.95
2019-04-07T14:17:27.552Z,99803.06
2019-04-07T14:20:15.065Z,99797.84
2019-04-07T14:22:58.693Z,99802.09
2019-04-07T14:25:34.616Z,99804.14
2019-04-07T14:28:13.002Z,99804.05
2019-04-07T14:31:09.364Z,99794.83
2019-04-07T14:34:03.554Z,99802.18
2019-04-07T14:36:58.946Z,99795.57
2019-04-07T14:39:53.432Z,99793.12
2019-04-07T14:42:36.149Z,99794.31
2019-04-07T14:45:31.887Z,99797.88
2019-04-07T14:48:29.353Z,99801.30
2019-04-07T14:51:08.689Z,99791.74
2019-04-07T14:53:51.412Z,99802.02
2019-04-07T14:56:38.605Z,99800.84
2019-04-07T14:59:28.438Z,99800.12
2019-04-07T15:02:00.545Z,99799.29
2019-04-07T15:04:51.006Z,99801.40
2019-04-07T15:07:39.426Z,99804.14
2019-04-07T15:10:19.919Z,99801.01
2019-04-07T15:12:52.430Z,99805.34
2019-04-07T15:15:21.455Z,99804.36
2019-04-07T15:17:50.143Z,99804.92
2019-04-07T15:20:19.599Z,99800.80
2019-04-07T15:22:49.411Z,99799.77
2019-04-07T15:25:18.441Z,99798.59
2019-04-07T15:27:47.734Z,99798.99
2019-04-07T15:30:16.972Z,99796.20
2019-04-07T15:32:45.921Z,99800.77
2019-04-07T15:35:15.495Z,99797.85
2019-04-07T15:37:45.067Z,99802.52
2019-04-07T15:40:14.060Z,99803.02
2019-04-07T15:42:44.422Z,99799.45
2019-04-07T15:45:13.444Z,99798.20
2019-04-07T15:47:42.498Z,99799.01
2019-04-07T15:50:11.723Z,99800.63
2019-04-07T15:52:43.744Z,99801.58
2019-04-07T15:55:11.846Z,99809.87
2019-04-07T15:57:40.743Z,99809.33
2019-04-07T16:00:10.079Z,99805.81
2019-04-07T16:02:42.181Z,99810.66
2019-04-07T16:05:10.507Z,99811.88
2019-04-07T16:07:39.248Z,99817.44
2019-04-07T16:10:08.505Z,99808.87
2019-04-07T16:12:44.879Z,99813.46
2019-04-07T16:15:08.010Z,99825.05
2019-04-07T16:17:37.272Z,99823.48
2019-04-07T16:20:18.821Z,99823.48
2019-04-07T16:22:38.013Z,99825.30
2019-04-07T16:25:08.762Z,99822.11
2019-04-07T16:27:39.387Z,99818.98
2019-04-07T16:30:08.689Z,99821.70
2019-04-07T16:32:39.083Z,99818.64
2019-04-07T16:35:12.933Z,99816.30
2019-04-07T16:37:39.392Z,99816.30
2019-04-07T16:40:11.467Z,99821.28
2019-04-07T16:42:40.006Z,99825.34
2019-04-07T16:45:11.921Z,99829.14
2019-04-07T16:47:39.395Z,99824.63
2019-04-07T16:50:08.729Z,99830.45
2019-04-07T16:52:37.487Z,99834.89
2019-04-07T16:55:28.258Z,99834.53
2019-04-07T16:58:00.354Z,99841.06
2019-04-07T17:00:28.294Z,99837.16
2019-04-07T17:02:56.926Z,99845.05
2019-04-07T17:05:25.749Z,99844.27
2019-04-07T17:07:55.982Z,99850.41
2019-04-07T17:10:28.739Z,99845.09
2019-04-07T17:12:56.616Z,99844.80
2019-04-07T17:15:26.256Z,99847.29
2019-04-07T17:17:54.895Z,99847.34
2019-04-07T17:20:27.211Z,99852.03
2019-04-07T17:22:54.464Z,99855.30
2019-04-07T17:25:23.232Z,99855.89
2019-04-07T17:27:51.983Z,99864.68
2019-04-07T17:30:24.387Z,99858.30
2019-04-07T17:32:52.465Z,99863.03
2019-04-07T17:35:21.982Z,99865.62
2019-04-07T17:37:51.219Z,99865.62
2019-04-07T17:40:22.677Z,99866.85
2019-04-07T17:42:53.087Z,99872.22
2019-04-07T17:45:56.782Z,99874.56
2019-04-07T17:48:50.386Z,99876.91
2019-04-07T17:51:42.214Z,99881.89
2019-04-07T17:54:29.665Z,99889.86
2019-04-07T17:57:23.737Z,99896.39
2019-04-07T18:00:07.944Z,99887.20
2019-04-07T18:02:57.811Z,99892.92
2019-04-07T18:05:43.191Z,99895.75
2019-04-07T18:08:29.977Z,99895.77
2019-04-07T18:11:37.744Z,99905.55
2019-04-07T18:14:28.356Z,99903.50
2019-04-07T18:17:06.681Z,99907.30
2019-04-07T18:19:45.433Z,99907.63
2019-04-07T18:22:33.651Z,99913.42
2019-04-07T18:25:21.649Z,99910.70
2019-04-07T18:28:05.547Z,99922.44
2019-04-07T18:30:52.653Z,99921.87
2019-04-07T18:33:37.926Z,99918.23
2019-04-07T18:36:25.727Z,99925.45
2019-04-07T18:39:24.108Z,99931.52
2019-04-07T18:42:21.961Z,99933.62
2019-04-07T18:45:12.250Z,99937.83
2019-04-07T18:47:48.262Z,99942.28
2019-04-07T18:50:46.583Z,99950.51
2019-04-07T18:53:33.796Z,99950.30
2019-04-07T18:56:16.101Z,99955.84
2019-04-07T18:59:10.002Z,99963.28
2019-04-07T19:02:11.833Z,99960.30
2019-04-07T19:04:52.190Z,99965.45
2019-04-07T19:07:45.897Z,99972.97
2019-04-07T19:10:33.468Z,99974.02
2019-04-07T19:13:15.878Z,99973.01
2019-04-07T19:15:55.478Z,99976.24
2019-04-07T19:18:34.752Z,99982.75
2019-04-07T19:21:37.630Z,99985.89
2019-04-07T19:24:25.001Z,99982.70
2019-04-07T19:27:17.699Z,99985.66
2019-04-07T19:30:02.542Z,99993.47
2019-04-07T19:32:52.650Z,99994.33
2019-04-07T19:35:49.024Z,99994.05
2019-04-07T19:38:27.366Z,99996.03
2019-04-07T19:41:16.723Z,99997.44
2019-04-07T19:43:54.359Z,99997.66
2019-04-07T19:46:46.575Z,99999.19
2019-04-07T19:49:41.095Z,99999.11
2019-04-07T19:52:33.864Z,100002.09
2019-04-07T19:55:22.763Z,100006.30
2019-04-07T19:58:00.631Z,100000.97
2019-04-07T20:01:01.748Z,100003.86
2019-04-07T20:03:53.919Z,99996.02
2019-04-07T20:06:40.018Z,100000.35
2019-04-07T20:09:27.825Z,100003.30
2019-04-07T20:12:08.536Z,100007.66
2019-04-07T20:15:03.048Z,100008.58
2019-04-07T20:17:44.068Z,100013.94
2019-04-07T20:20:31.236Z,100014.19
2019-04-07T20:23:22.872Z,100015.55
2019-04-07T20:26:00.113Z,100015.91
2019-04-07T20:28:35.852Z,100017.30
2019-04-07T20:31:24.158Z,100016.16
2019-04-07T20:34:02.178Z,100022.33
2019-04-07T20:36:48.425Z,100013.02
2019-04-07T20:39:37.262Z,100015.67
2019-04-07T20:42:19.309Z,100018.69
2019-04-07T20:45:15.348Z,100018.59
2019-04-07T20:48:13.585Z,100015.83
2019-04-07T20:50:50.912Z,100021.30
2019-04-07T20:53:29.694Z,100020.39
2019-04-07T20:56:13.026Z,100016.36
2019-04-07T20:59:03.922Z,100019.79
2019-04-07T21:02:00.788Z,100019.69
2019-04-07T21:04:39.784Z,100024.56
2019-04-07T21:07:19.389Z,100019.36
2019-04-07T21:09:56.646Z,100023.64
2019-04-07T21:12:37.053Z,100022.98
2019-04-07T21:15:29.614Z,100026.53
2019-04-07T21:18:23.883Z,100027.16
2019-04-07T21:21:15.148Z,100021.03
2019-04-07T21:23:55.261Z,100017.44
2019-04-07T21:26:30.087Z,100023.77
2019-04-07T21:29:11.285Z,100025.52
2019-04-07T21:31:47.680Z,100018.88
2019-04-07T21:34:36.435Z,100025.71
2019-04-07T21:37:33.781Z,100022.91
2019-04-07T21:40:32.341Z,100033.91
2019-04-07T21:43:17.970Z,100026.63
2019-04-07T21:46:04.914Z,100027.33
2019-04-07T21:48:45.924Z,100029.87
2019-04-07T21:51:26.882Z,100031.16
2019-04-07T21:54:21.531Z,100025.09
2019-04-07T21:57:14.026Z,100031.70
2019-04-07T22:00:04.989Z,100031.45
2019-04-07T22:03:05.603Z,100031.70
2019-04-07T22:05:50.991Z,100034.58
2019-04-07T22:08:25.535Z,100038.70
2019-04-07T22:10:55.372Z,100036.27
2019-04-07T22:13:24.119Z,100039.55
2019-04-07T22:15:58.585Z,100044.14
2019-04-07T22:18:23.665Z,100049.91
2019-04-07T22:20:54.769Z,100053.38
2019-04-07T22:23:23.034Z,100051.47
2019-04-07T22:25:52.364Z,100051.86
2019-04-07T22:28:21.084Z,100050.87
2019-04-07T22:30:50.951Z,100049.66
2019-04-07T22:33:23.028Z,100050.06
2019-04-07T22:35:51.067Z,100052.19
2019-04-07T22:38:22.928Z,100053.94
2019-04-07T22:40:50.462Z,100052.98
2019-04-07T22:43:20.084Z,100049.73
2019-04-07T22:45:59.004Z,100056.65
2019-04-07T22:48:23.563Z,100058.06
2019-04-07T22:50:51.755Z,100056.28
2019-04-07T22:53:22.589Z,100060.27
2019-04-07T22:55:51.228Z,100058.28
2019-04-07T22:58:20.175Z,100054.80
2019-04-07T23:00:48.983Z,100058.20
2019-04-07T23:03:17.670Z,100054.64
2019-04-07T23:05:47.051Z,100058.41
2019-04-07T23:08:15.596Z,100060.47
2019-04-07T23:10:44.316Z,100064.09
2019-04-07T23:13:13.296Z,100060.84
2019-04-07T23:15:45.487Z,100059.50
2019-04-07T23:18:12.599Z,100065.70
2019-04-07T23:20:41.722Z,100063.58
2019-04-07T23:23:10.994Z,100057.24
2019-04-07T23:25:39.504Z,100061.13
2019-04-07T23:28:08.243Z,100060.80
2019-04-07T23:30:36.950Z,100057.72
2019-04-07T23:33:06.242Z,100061.73
2019-04-07T23:35:35.117Z,100059.65
2019-04-07T23:38:03.765Z,100063.70
2019-04-07T23:40:32.689Z,100061.13
2019-04-07T23:43:01.316Z,100062.92
2019-04-07T23:45:29.849Z,100056.78
2019-04-07T23:47:58.773Z,100060.79
2019-04-07T23:50:27.527Z,100060.56
2019-04-07T23:53:00.266Z,100058.16
2019-04-07T23:55:29.499Z,100062.00
2019-04-07T23:57:58.035Z,100057.30
